createdAt,value
2023-04-17T00:00:32.139Z,11.84
2023-04-17T00:03:01.418Z,11.89
2023-04-17T00:05:32.046Z,11.93
2023-04-17T00:08:00.772Z,11.85
2023-04-17T00:10:28.963Z,11.86
2023-04-17T00:12:56.990Z,11.87
2023-04-17T00:15:26.620Z,11.82
2023-04-17T00:17:54.687Z,11.87
2023-04-17T00:20:22.785Z,11.90
2023-04-17T00:22:51.146Z,11.90
2023-04-17T00:25:19.136Z,11.91
2023-04-17T00:27:47.189Z,11.90
2023-04-17T00:30:15.414Z,11.88
2023-04-17T00:32:44.836Z,11.84
2023-04-17T00:35:12.997Z,11.85
2023-04-17T00:37:41.082Z,11.89
2023-04-17T00:40:11.560Z,11.88
2023-04-17T00:42:39.547Z,11.90
2023-04-17T00:45:10.899Z,11.91
2023-04-17T00:47:39.955Z,11.91
2023-04-17T00:50:11.022Z,11.90
2023-04-17T00:52:39.082Z,11.85
2023-04-17T00:55:09.082Z,11.86
2023-04-17T00:57:37.540Z,11.85
2023-04-17T01:00:09.448Z,11.86
2023-04-17T01:02:38.176Z,11.84
2023-04-17T01:05:07.307Z,11.87
2023-04-17T01:07:38.583Z,11.89
2023-04-17T01:10:08.356Z,11.88
2023-04-17T01:12:36.489Z,11.86
2023-04-17T01:15:05.578Z,11.89
2023-04-17T01:17:33.885Z,11.86
2023-04-17T01:20:01.944Z,11.86
2023-04-17T01:22:30.180Z,11.82
2023-04-17T01:25:01.023Z,11.84
2023-04-17T01:27:35.670Z,11.84
2023-04-17T01:30:04.001Z,11.81
2023-04-17T01:32:36.121Z,11.84
2023-04-17T01:35:04.960Z,11.82
2023-04-17T01:37:33.092Z,11.79
2023-04-17T01:40:05.241Z,11.84
2023-04-17T01:42:33.331Z,11.78
2023-04-17T01:45:01.565Z,11.81
2023-04-17T01:47:29.589Z,11.79
2023-04-17T01:49:57.630Z,11.77
2023-04-17T01:52:25.728Z,11.79
2023-04-17T01:54:53.786Z,11.80
2023-04-17T01:57:23.202Z,11.79
2023-04-17T01:59:51.230Z,11.79
2023-04-17T02:02:19.428Z,11.79
2023-04-17T02:04:47.494Z,11.81
2023-04-17T02:07:16.580Z,11.86
2023-04-17T02:09:44.555Z,11.84
2023-04-17T02:12:12.540Z,11.77
2023-04-17T02:14:42.009Z,11.83
2023-04-17T02:17:10.000Z,11.82
2023-04-17T02:19:38.060Z,11.83
2023-04-17T02:22:06.085Z,11.81
2023-04-17T02:24:34.089Z,11.80
2023-04-17T02:27:02.792Z,11.80
2023-04-17T02:29:30.837Z,11.78
2023-04-17T02:32:00.200Z,11.80
2023-04-17T02:34:28.377Z,11.82
2023-04-17T02:36:57.230Z,11.81
2023-04-17T02:39:25.524Z,11.83
2023-04-17T02:41:53.637Z,11.82
2023-04-17T02:44:21.644Z,11.80
2023-04-17T02:46:49.727Z,11.76
2023-04-17T02:49:19.178Z,11.73
2023-04-17T02:51:49.212Z,11.71
2023-04-17T02:54:17.268Z,11.74
2023-04-17T02:56:45.586Z,11.75
2023-04-17T02:59:14.147Z,11.78
2023-04-17T03:01:42.321Z,11.76
2023-04-17T03:04:10.518Z,11.75
2023-04-17T03:06:39.936Z,11.73
2023-04-17T03:09:08.538Z,11.73
2023-04-17T03:11:36.547Z,11.75
2023-04-17T03:14:04.531Z,11.70
2023-04-17T03:16:32.629Z,11.73
2023-04-17T03:19:03.347Z,11.67
2023-04-17T03:21:31.462Z,11.69
2023-04-17T03:24:01.525Z,11.66
2023-04-17T03:26:29.981Z,11.68
2023-04-17T03:29:00.941Z,11.68
2023-04-17T03:31:29.003Z,11.64
2023-04-17T03:33:57.118Z,11.65
2023-04-17T03:36:27.100Z,11.66
2023-04-17T03:38:57.814Z,11.65
2023-04-17T03:41:27.248Z,11.67
2023-04-17T03:43:55.466Z,11.63
2023-04-17T03:46:23.518Z,11.61
2023-04-17T03:48:51.774Z,11.54
2023-04-17T03:51:19.955Z,11.61
2023-04-17T03:53:49.313Z,11.62
2023-04-17T03:56:17.626Z,11.67
2023-04-17T03:58:47.841Z,11.64
2023-04-17T04:01:18.744Z,11.66
2023-04-17T04:04:03.423Z,11.67
2023-04-17T04:06:31.921Z,11.60
2023-04-17T04:09:00.502Z,11.66
2023-04-17T04:11:29.253Z,11.65
2023-04-17T04:13:58.684Z,11.62
2023-04-17T04:16:27.275Z,11.69
2023-04-17T04:19:04.053Z,11.67
2023-04-17T04:21:32.154Z,11.69
2023-04-17T04:24:00.166Z,11.71
2023-04-17T04:26:28.743Z,11.68
2023-04-17T04:29:00.471Z,11.69
2023-04-17T04:31:39.671Z,11.68
2023-04-17T04:34:09.683Z,11.71
2023-04-17T04:36:41.894Z,11.73
2023-04-17T04:39:20.260Z,11.76
2023-04-17T04:41:50.357Z,11.72
2023-04-17T04:44:21.435Z,11.68
2023-04-17T04:46:53.017Z,11.73
2023-04-17T04:49:21.465Z,11.75
2023-04-17T04:51:49.591Z,11.75
2023-04-17T04:54:17.747Z,11.71
2023-04-17T04:56:55.669Z,11.74
2023-04-17T04:59:25.416Z,11.77
2023-04-17T05:02:04.401Z,11.76
2023-04-17T05:04:33.149Z,12.34
2023-04-17T05:07:04.897Z,11.97
2023-04-17T05:09:35.594Z,11.80
2023-04-17T05:12:04.981Z,11.78
2023-04-17T05:14:35.204Z,11.78
2023-04-17T05:17:03.550Z,11.80
2023-04-17T05:19:31.652Z,11.76
2023-04-17T05:22:04.134Z,11.80
2023-04-17T05:24:36.175Z,11.80
2023-04-17T05:27:04.451Z,11.80
2023-04-17T05:29:33.897Z,11.74
2023-04-17T05:32:02.211Z,11.71
2023-04-17T05:34:47.813Z,11.71
2023-04-17T05:37:17.806Z,11.67
2023-04-17T05:39:46.002Z,11.70
2023-04-17T05:42:14.059Z,11.69
2023-04-17T05:44:43.434Z,11.65
2023-04-17T05:47:11.477Z,11.61
2023-04-17T05:49:39.576Z,11.69
2023-04-17T05:52:07.707Z,11.74
2023-04-17T05:54:40.107Z,11.76
2023-04-17T05:57:09.837Z,11.62
2023-04-17T05:59:38.551Z,11.62
2023-04-17T06:02:08.939Z,11.68
2023-04-17T06:04:37.324Z,11.71
2023-04-17T06:07:08.195Z,11.70
2023-04-17T06:09:37.603Z,11.59
2023-04-17T06:12:05.994Z,11.62
2023-04-17T06:14:34.668Z,11.61
2023-04-17T06:17:09.007Z,11.60
2023-04-17T06:19:37.228Z,11.66
2023-04-17T06:22:05.507Z,11.64
2023-04-17T06:24:33.714Z,11.71
2023-04-17T06:27:52.750Z,11.67
2023-04-17T06:30:21.362Z,11.62
2023-04-17T06:32:54.393Z,11.66
2023-04-17T06:35:22.697Z,11.64
2023-04-17T06:37:59.683Z,11.65
2023-04-17T06:40:28.046Z,11.74
2023-04-17T06:42:56.135Z,11.66
2023-04-17T06:45:27.876Z,11.74
2023-04-17T06:47:57.482Z,11.78
2023-04-17T06:50:25.864Z,11.70
2023-04-17T06:52:53.857Z,11.73
2023-04-17T06:55:22.436Z,11.70
2023-04-17T06:57:54.989Z,11.68
2023-04-17T07:00:25.988Z,11.65
2023-04-17T07:02:54.156Z,11.61
2023-04-17T07:05:23.593Z,11.66
2023-04-17T07:07:55.863Z,11.68
2023-04-17T07:10:24.048Z,11.68
2023-04-17T07:12:52.120Z,11.61
2023-04-17T07:15:23.738Z,11.64
2023-04-17T07:17:51.956Z,11.60
2023-04-17T07:20:20.138Z,11.62
2023-04-17T07:22:49.884Z,11.66
2023-04-17T07:25:18.277Z,11.64
2023-04-17T07:27:46.347Z,11.67
2023-04-17T07:30:14.967Z,11.75
2023-04-17T07:32:43.170Z,11.81
2023-04-17T07:35:12.639Z,11.79
2023-04-17T07:37:41.179Z,11.81
2023-04-17T07:40:14.839Z,11.60
2023-04-17T07:42:42.904Z,11.75
2023-04-17T07:45:12.520Z,11.69
2023-04-17T07:47:40.648Z,11.71
2023-04-17T07:50:11.396Z,11.77
2023-04-17T07:53:10.697Z,11.74
2023-04-17T07:55:40.062Z,11.75
2023-04-17T07:58:09.362Z,11.78
2023-04-17T08:00:37.423Z,11.75
2023-04-17T08:03:06.183Z,11.73
2023-04-17T08:05:34.862Z,11.73
2023-04-17T08:08:02.938Z,11.76
2023-04-17T08:10:31.135Z,11.76
2023-04-17T08:13:02.645Z,11.75
2023-04-17T08:15:30.970Z,11.78
2023-04-17T08:17:59.088Z,11.80
2023-04-17T08:20:27.294Z,11.84
2023-04-17T08:22:55.342Z,11.83
2023-04-17T08:25:23.443Z,11.85
2023-04-17T08:27:51.643Z,11.87
2023-04-17T08:30:21.179Z,11.86
2023-04-17T08:32:52.076Z,11.86
2023-04-17T08:35:20.808Z,11.91
2023-04-17T08:37:49.025Z,11.92
2023-04-17T08:40:18.665Z,11.94
2023-04-17T08:42:49.477Z,11.97
2023-04-17T08:45:18.276Z,11.92
2023-04-17T08:47:48.215Z,12.01
2023-04-17T08:50:19.317Z,12.03
2023-04-17T08:52:49.971Z,12.00
2023-04-17T08:55:20.379Z,11.96
2023-04-17T08:57:56.330Z,12.00
2023-04-17T09:00:28.891Z,12.00
2023-04-17T09:03:00.366Z,12.06
2023-04-17T09:05:33.201Z,12.06
2023-04-17T09:08:13.100Z,12.10
2023-04-17T09:10:43.462Z,12.14
2023-04-17T09:13:14.575Z,12.17
2023-04-17T09:15:44.462Z,12.18
2023-04-17T09:18:28.341Z,12.21
2023-04-17T09:20:57.629Z,12.27
2023-04-17T09:23:29.736Z,12.28
2023-04-17T09:26:08.681Z,12.34
2023-04-17T09:28:39.523Z,12.27
2023-04-17T09:31:24.396Z,12.32
2023-04-17T09:34:00.118Z,12.32
2023-04-17T09:36:30.434Z,12.27
2023-04-17T09:38:59.360Z,12.30
2023-04-17T09:41:29.581Z,12.34
2023-04-17T09:44:01.868Z,12.30
2023-04-17T09:46:37.883Z,12.34
2023-04-17T09:49:20.815Z,12.41
2023-04-17T09:51:49.341Z,12.43
2023-04-17T09:54:20.050Z,12.46
2023-04-17T09:56:49.628Z,12.45
2023-04-17T09:59:18.252Z,12.44
2023-04-17T10:01:47.062Z,12.45
2023-04-17T10:04:17.092Z,12.47
2023-04-17T10:06:45.868Z,12.48
2023-04-17T10:09:13.960Z,12.50
2023-04-17T10:11:46.093Z,12.51
2023-04-17T10:14:21.263Z,12.53
2023-04-17T10:16:50.494Z,12.38
2023-04-17T10:19:29.544Z,12.49
2023-04-17T10:22:34.093Z,12.46
2023-04-17T10:25:23.789Z,12.50
2023-04-17T10:28:00.008Z,12.52
2023-04-17T10:30:54.927Z,12.54
2023-04-17T10:33:27.906Z,12.56
2023-04-17T10:35:57.490Z,12.55
2023-04-17T10:38:34.267Z,12.57
2023-04-17T10:41:05.712Z,12.56
2023-04-17T10:43:33.979Z,12.58
2023-04-17T10:46:07.215Z,12.65
2023-04-17T10:48:38.441Z,12.61
2023-04-17T10:51:44.585Z,12.70
2023-04-17T10:54:15.536Z,12.72
2023-04-17T10:56:46.174Z,12.80
2023-04-17T10:59:16.933Z,12.92
2023-04-17T11:02:04.374Z,13.03
2023-04-17T11:04:33.818Z,13.07
2023-04-17T11:07:03.695Z,13.10
2023-04-17T11:09:31.757Z,13.02
2023-04-17T11:12:03.080Z,13.09
2023-04-17T11:14:32.309Z,13.12
2023-04-17T11:17:02.073Z,13.09
2023-04-17T11:19:30.525Z,13.10
2023-04-17T11:22:02.402Z,13.13
2023-04-17T11:24:33.193Z,13.20
2023-04-17T11:27:03.327Z,13.18
2023-04-17T11:29:31.633Z,13.17
2023-04-17T11:32:00.773Z,13.22
2023-04-17T11:34:32.098Z,13.16
2023-04-17T11:37:02.213Z,13.10
2023-04-17T11:39:34.190Z,13.06
2023-04-17T11:42:03.741Z,12.99
2023-04-17T11:44:31.855Z,13.03
2023-04-17T11:47:00.328Z,13.00
2023-04-17T11:49:30.239Z,13.01
2023-04-17T11:52:02.057Z,12.98
2023-04-17T11:54:35.799Z,12.95
2023-04-17T11:57:06.843Z,12.94
2023-04-17T11:59:36.892Z,12.82
2023-04-17T12:02:08.927Z,12.84
2023-04-17T12:04:39.738Z,12.87
2023-04-17T12:07:21.582Z,12.85
2023-04-17T12:09:57.946Z,12.86
2023-04-17T12:12:26.135Z,12.88
2023-04-17T12:14:54.144Z,12.94
2023-04-17T12:17:22.249Z,12.89
2023-04-17T12:19:50.952Z,12.95
2023-04-17T12:22:19.155Z,12.97
2023-04-17T12:24:47.244Z,12.99
2023-04-17T12:27:17.285Z,13.08
2023-04-17T12:29:45.420Z,13.13
2023-04-17T12:32:13.591Z,13.22
2023-04-17T12:34:41.810Z,13.24
2023-04-17T12:37:10.067Z,13.32
2023-04-17T12:39:38.171Z,13.37
2023-04-17T12:42:06.427Z,13.43
2023-04-17T12:44:35.914Z,13.49
2023-04-17T12:47:04.042Z,13.50
2023-04-17T12:49:32.170Z,13.48
2023-04-17T12:52:02.962Z,13.54
2023-04-17T12:54:31.863Z,13.59
2023-04-17T12:57:00.004Z,13.67
2023-04-17T12:59:28.052Z,13.73
2023-04-17T13:01:57.650Z,13.70
2023-04-17T13:04:26.040Z,13.68
2023-04-17T13:06:54.210Z,13.64
2023-04-17T13:09:22.231Z,13.63
2023-04-17T13:11:50.799Z,13.58
2023-04-17T13:14:18.917Z,13.61
2023-04-17T13:16:48.695Z,13.52
2023-04-17T13:19:18.133Z,13.55
2023-04-17T13:21:46.314Z,13.49
2023-04-17T13:24:14.982Z,13.48
2023-04-17T13:26:43.155Z,13.44
2023-04-17T13:29:11.780Z,13.38
2023-04-17T13:31:39.988Z,13.43
2023-04-17T13:34:08.352Z,13.43
2023-04-17T13:36:38.043Z,13.44
2023-04-17T13:39:06.272Z,13.37
2023-04-17T13:41:34.413Z,13.37
2023-04-17T13:44:02.614Z,13.36
2023-04-17T13:46:31.786Z,13.39
2023-04-17T13:49:00.362Z,13.40
2023-04-17T13:51:28.609Z,13.38
2023-04-17T13:53:59.637Z,13.40
2023-04-17T13:56:28.456Z,13.36
2023-04-17T13:58:57.476Z,13.33
2023-04-17T14:01:25.782Z,13.30
2023-04-17T14:03:54.264Z,13.33
2023-04-17T14:06:22.409Z,13.31
2023-04-17T14:08:50.503Z,13.16
2023-04-17T14:11:19.877Z,13.13
2023-04-17T14:13:47.952Z,13.14
2023-04-17T14:16:16.125Z,13.13
2023-04-17T14:18:44.247Z,13.17
2023-04-17T14:21:12.376Z,13.16
2023-04-17T14:23:40.542Z,13.15
2023-04-17T14:26:08.789Z,13.12
2023-04-17T14:28:38.294Z,13.20
2023-04-17T14:31:07.017Z,13.18
2023-04-17T14:33:35.320Z,13.18
2023-04-17T14:36:05.666Z,13.21
2023-04-17T14:38:35.308Z,13.22
2023-04-17T14:41:03.443Z,13.22
2023-04-17T14:43:31.833Z,13.20
2023-04-17T14:46:01.529Z,13.22
2023-04-17T14:48:30.356Z,13.21
2023-04-17T14:51:01.586Z,13.24
2023-04-17T14:53:29.728Z,13.24
2023-04-17T14:55:59.074Z,13.21
2023-04-17T14:58:27.660Z,13.21
2023-04-17T15:00:55.706Z,13.12
2023-04-17T15:03:25.422Z,13.25
2023-04-17T15:05:53.908Z,13.31
2023-04-17T15:08:22.018Z,13.18
2023-04-17T15:10:51.562Z,13.13
2023-04-17T15:13:19.922Z,13.17
2023-04-17T15:15:47.992Z,13.23
2023-04-17T15:18:23.779Z,13.27
2023-04-17T15:20:52.044Z,13.29
2023-04-17T15:23:21.192Z,13.21
2023-04-17T15:25:49.483Z,13.18
2023-04-17T15:28:17.577Z,13.24
2023-04-17T15:30:45.704Z,13.17
2023-04-17T15:33:13.814Z,13.25
2023-04-17T15:35:43.334Z,13.25
2023-04-17T15:38:11.553Z,13.24
2023-04-17T15:40:39.735Z,13.20
2023-04-17T15:43:10.574Z,13.25
2023-04-17T15:45:38.847Z,13.23
2023-04-17T15:48:07.741Z,13.24
2023-04-17T15:50:35.920Z,13.22
2023-04-17T15:53:05.366Z,13.24
2023-04-17T15:55:36.409Z,13.20
2023-04-17T15:58:04.815Z,13.23
2023-04-17T16:00:33.968Z,13.15
2023-04-17T16:03:02.352Z,13.14
2023-04-17T16:05:31.439Z,13.15
2023-04-17T16:08:02.657Z,13.11
2023-04-17T16:10:32.102Z,13.08
2023-04-17T16:13:04.017Z,13.01
2023-04-17T16:15:32.152Z,13.04
2023-04-17T16:18:00.341Z,13.14
2023-04-17T16:20:29.474Z,13.08
2023-04-17T16:22:57.611Z,13.10
2023-04-17T16:25:28.165Z,13.16
2023-04-17T16:27:57.812Z,13.17
2023-04-17T16:30:25.917Z,13.05
2023-04-17T16:32:54.058Z,13.10
2023-04-17T16:35:22.291Z,13.06
2023-04-17T16:37:50.522Z,13.10
2023-04-17T16:40:19.708Z,13.12
2023-04-17T16:42:48.806Z,13.14
2023-04-17T16:45:18.497Z,13.16
2023-04-17T16:47:46.615Z,13.09
2023-04-17T16:50:14.772Z,13.07
2023-04-17T16:52:42.815Z,13.01
2023-04-17T16:55:11.396Z,13.04
2023-04-17T16:57:42.745Z,13.07
2023-04-17T17:00:12.886Z,13.13
2023-04-17T17:02:42.633Z,13.14
2023-04-17T17:05:16.736Z,13.16
2023-04-17T17:07:44.888Z,13.06
2023-04-17T17:10:13.120Z,13.10
2023-04-17T17:12:41.297Z,13.07
2023-04-17T17:15:10.288Z,13.06
2023-04-17T17:17:38.395Z,13.07
2023-04-17T17:20:11.295Z,13.06
2023-04-17T17:22:39.392Z,13.05
2023-04-17T17:25:08.854Z,13.01
2023-04-17T17:27:36.857Z,13.07
2023-04-17T17:30:05.670Z,13.05
2023-04-17T17:32:33.794Z,13.11
2023-04-17T17:35:01.892Z,13.13
2023-04-17T17:37:31.503Z,13.20
2023-04-17T17:39:59.676Z,13.20
2023-04-17T17:42:27.832Z,13.19
2023-04-17T17:44:56.199Z,13.18
2023-04-17T17:47:24.877Z,13.15
2023-04-17T17:49:53.125Z,13.18
2023-04-17T17:52:21.517Z,13.18
2023-04-17T17:54:51.024Z,13.19
2023-04-17T17:57:19.085Z,13.17
2023-04-17T17:59:47.135Z,13.15
2023-04-17T18:02:15.847Z,13.09
2023-04-17T18:04:44.180Z,13.15
2023-04-17T18:07:12.322Z,13.16
2023-04-17T18:09:40.344Z,13.15
2023-04-17T18:12:09.780Z,13.16
2023-04-17T18:14:37.815Z,13.14
2023-04-17T18:17:06.161Z,13.13
2023-04-17T18:19:34.456Z,13.09
2023-04-17T18:22:03.117Z,13.04
2023-04-17T18:24:31.726Z,13.01
2023-04-17T18:26:59.744Z,13.05
2023-04-17T18:29:29.193Z,13.06
2023-04-17T18:32:21.686Z,13.02
2023-04-17T18:34:50.800Z,12.96
2023-04-17T18:37:18.788Z,12.90
2023-04-17T18:39:46.878Z,12.95
2023-04-17T18:42:18.618Z,12.82
2023-04-17T18:44:48.238Z,12.94
2023-04-17T18:47:16.437Z,12.94
2023-04-17T18:49:44.476Z,12.96
2023-04-17T18:52:16.212Z,12.99
2023-04-17T18:54:44.237Z,12.88
2023-04-17T18:57:12.261Z,12.89
2023-04-17T18:59:43.039Z,12.96
2023-04-17T19:02:12.695Z,12.89
2023-04-17T19:04:40.747Z,12.83
2023-04-17T19:07:08.928Z,12.87
2023-04-17T19:09:37.003Z,12.87
2023-04-17T19:12:05.981Z,12.90
2023-04-17T19:14:34.015Z,12.86
2023-04-17T19:17:02.041Z,12.86
2023-04-17T19:19:31.374Z,12.83
2023-04-17T19:21:59.372Z,12.86
2023-04-17T19:24:27.346Z,12.81
2023-04-17T19:26:55.338Z,12.86
2023-04-17T19:29:23.332Z,12.82
2023-04-17T19:31:51.436Z,12.73
2023-04-17T19:34:19.496Z,12.70
2023-04-17T19:36:48.836Z,12.67
2023-04-17T19:39:16.882Z,12.67
2023-04-17T19:41:50.644Z,12.58
2023-04-17T19:44:18.893Z,12.55
2023-04-17T19:46:46.897Z,12.47
2023-04-17T19:49:15.597Z,12.43
2023-04-17T19:51:43.647Z,12.51
2023-04-17T19:54:13.005Z,12.49
2023-04-17T19:56:40.980Z,12.44
2023-04-17T19:59:12.311Z,12.44
2023-04-17T20:01:43.429Z,12.40
2023-04-17T20:04:12.055Z,12.36
2023-04-17T20:06:40.881Z,12.32
2023-04-17T20:09:09.007Z,12.36
2023-04-17T20:11:38.425Z,12.35
2023-04-17T20:14:06.662Z,12.31
2023-04-17T20:16:34.772Z,12.31
2023-04-17T20:19:02.865Z,12.26
2023-04-17T20:21:30.886Z,12.22
2023-04-17T20:23:59.442Z,12.15
2023-04-17T20:26:27.759Z,12.14
2023-04-17T20:28:57.112Z,12.10
2023-04-17T20:31:25.297Z,12.00
2023-04-17T20:33:53.325Z,11.96
2023-04-17T20:36:21.355Z,11.90
2023-04-17T20:38:49.349Z,11.88
2023-04-17T20:41:17.995Z,11.84
2023-04-17T20:43:45.992Z,11.76
2023-04-17T20:46:15.401Z,11.73
2023-04-17T20:48:43.526Z,11.75
2023-04-17T20:51:11.496Z,11.71
2023-04-17T20:53:39.513Z,11.70
2023-04-17T20:56:07.629Z,11.66
2023-04-17T20:58:35.710Z,11.67
2023-04-17T21:01:03.810Z,11.61
2023-04-17T21:03:34.319Z,11.58
2023-04-17T21:06:02.406Z,11.53
2023-04-17T21:08:30.500Z,11.52
2023-04-17T21:10:58.561Z,11.50
2023-04-17T21:13:26.818Z,11.39
2023-04-17T21:15:55.009Z,11.39
2023-04-17T21:18:23.096Z,11.42
2023-04-17T21:20:52.593Z,11.38
2023-04-17T21:23:20.689Z,11.34
2023-04-17T21:25:51.693Z,11.31
2023-04-17T21:28:19.802Z,11.30
2023-04-17T21:30:47.937Z,11.27
2023-04-17T21:33:16.036Z,11.22
2023-04-17T21:35:44.082Z,11.19
2023-04-17T21:38:13.555Z,11.22
2023-04-17T21:40:51.174Z,11.19
2023-04-17T21:43:19.681Z,11.17
2023-04-17T21:45:47.728Z,11.18
2023-04-17T21:48:16.266Z,11.24
2023-04-17T21:50:44.460Z,11.18
2023-04-17T21:53:15.832Z,11.16
2023-04-17T21:55:43.820Z,11.15
2023-04-17T21:58:12.105Z,11.17
2023-04-17T22:00:40.101Z,11.16
2023-04-17T22:03:12.795Z,11.08
2023-04-17T22:05:42.244Z,11.06
2023-04-17T22:08:10.695Z,11.05
2023-04-17T22:10:40.147Z,11.04
2023-04-17T22:13:09.300Z,11.01
2023-04-17T22:15:37.625Z,10.98
2023-04-17T22:18:06.332Z,10.96
2023-04-17T22:20:34.675Z,10.95
2023-04-17T22:23:02.745Z,10.95
2023-04-17T22:25:30.977Z,10.95
2023-04-17T22:28:00.373Z,10.95
2023-04-17T22:30:28.358Z,10.99
2023-04-17T22:32:57.164Z,10.91
2023-04-17T22:35:25.465Z,10.95
2023-04-17T22:37:53.440Z,10.94
2023-04-17T22:40:21.705Z,10.91
2023-04-17T22:42:51.492Z,10.94
2023-04-17T22:45:20.903Z,10.96
2023-04-17T22:47:48.927Z,10.91
2023-04-17T22:50:17.638Z,10.93
2023-04-17T22:52:45.771Z,10.91
2023-04-17T22:55:13.931Z,10.89
2023-04-17T22:57:42.009Z,10.91
2023-04-17T23:00:11.450Z,10.98
2023-04-17T23:02:41.719Z,10.90
2023-04-17T23:05:10.653Z,10.85
2023-04-17T23:07:39.368Z,10.88
2023-04-17T23:10:08.447Z,10.83
2023-04-17T23:12:36.560Z,10.83
2023-04-17T23:15:04.969Z,10.82
2023-04-17T23:17:33.120Z,10.79
2023-04-17T23:20:02.522Z,10.77
2023-04-17T23:22:33.965Z,10.81
2023-04-17T23:25:02.030Z,10.81
2023-04-17T23:27:30.104Z,10.82
2023-04-17T23:29:59.437Z,10.83
2023-04-17T23:32:27.629Z,10.79
2023-04-17T23:34:55.711Z,10.78
2023-04-17T23:37:26.311Z,10.84
2023-04-17T23:39:54.418Z,10.82
2023-04-17T23:42:22.467Z,10.84
2023-04-17T23:44:50.506Z,10.78
2023-04-17T23:47:18.548Z,10.86
2023-04-17T23:49:47.382Z,10.87
2023-04-17T23:52:15.468Z,10.79
2023-04-17T23:54:44.813Z,10.82
2023-04-17T23:57:12.870Z,10.84
2023-04-17T23:59:41.016Z,10.83
